sensor_id;sensor_type;location;lat;lon;timestamp;temperature;humidity
12893;DHT22;6514;48.606;9.222;2023-03-01T00:00:08;-1.20;99.90
12893;DHT22;6514;48.606;9.222;2023-03-01T00:02:35;-1.20;99.90
12893;DHT22;6514;48.606;9.222;2023-03-01T00:05:03;-1.20;99.90
12893;DHT22;6514;48.606;9.222;2023-03-01T00:07:30;-1.20;99.90
12893;DHT22;6514;48.606;9.222;2023-03-01T00:09:57;-1.10;99.90
12893;DHT22;6514;48.606;9.222;2023-03-01T00:12:25;-1.20;99.90
12893;DHT22;6514;48.606;9.222;2023-03-01T00:14:53;-1.20;99.90
12893;DHT22;6514;48.606;9.222;2023-03-01T00:17:20;-1.20;99.90
12893;DHT22;6514;48.606;9.222;2023-03-01T00:19:46;-1.20;99.90
12893;DHT22;6514;48.606;9.222;2023-03-01T00:22:13;-1.20;99.90
12893;DHT22;6514;48.606;9.222;2023-03-01T00:24:40;-1.10;99.90
12893;DHT22;6514;48.606;9.222;2023-03-01T00:27:07;-1.20;99.90
12893;DHT22;6514;48.606;9.222;2023-03-01T00:29:35;-1.30;99.90
12893;DHT22;6514;48.606;9.222;2023-03-01T00:32:02;-1.20;99.90
12893;DHT22;6514;48.606;9.222;2023-03-01T00:34:29;-1.20;99.90
12893;DHT22;6514;48.606;9.222;2023-03-01T00:36:56;-1.30;99.90
12893;DHT22;6514;48.606;9.222;2023-03-01T00:39:30;-1.30;99.90
12893;DHT22;6514;48.606;9.222;2023-03-01T00:41:57;-1.30;99.90
12893;DHT22;6514;48.606;9.222;2023-03-01T00:44:24;-1.30;99.90
12893;DHT22;6514;48.606;9.222;2023-03-01T00:46:52;-1.30;99.90
12893;DHT22;6514;48.606;9.222;2023-03-01T00:49:19;-1.30;99.90
12893;DHT22;6514;48.606;9.222;2023-03-01T00:51:46;-1.30;99.90
12893;DHT22;6514;48.606;9.222;2023-03-01T00:54:13;-1.40;99.90
12893;DHT22;6514;48.606;9.222;2023-03-01T00:56:42;-1.40;99.90
12893;DHT22;6514;48.606;9.222;2023-03-01T00:59:09;-1.50;99.90
12893;DHT22;6514;48.606;9.222;2023-03-01T01:01:36;-1.50;99.90
12893;DHT22;6514;48.606;9.222;2023-03-01T01:04:07;-1.50;99.90
12893;DHT22;6514;48.606;9.222;2023-03-01T01:06:36;-1.50;99.90
12893;DHT22;6514;48.606;9.222;2023-03-01T01:09:05;-1.50;99.90
12893;DHT22;6514;48.606;9.222;2023-03-01T01:11:33;-1.50;99.90
12893;DHT22;6514;48.606;9.222;2023-03-01T01:14:02;-1.50;99.90
12893;DHT22;6514;48.606;9.222;2023-03-01T01:16:29;-1.50;99.90
12893;DHT22;6514;48.606;9.222;2023-03-01T01:18:57;-1.60;99.90
12893;DHT22;6514;48.606;9.222;2023-03-01T01:21:25;-1.60;99.90
12893;DHT22;6514;48.606;9.222;2023-03-01T01:23:52;-1.60;99.90
12893;DHT22;6514;48.606;9.222;2023-03-01T01:26:21;-1.70;99.90
12893;DHT22;6514;48.606;9.222;2023-03-01T01:28:49;-1.70;99.90
12893;DHT22;6514;48.606;9.222;2023-03-01T01:31:17;-1.80;99.90
12893;DHT22;6514;48.606;9.222;2023-03-01T01:33:44;-1.70;99.90
12893;DHT22;6514;48.606;9.222;2023-03-01T01:36:12;-1.80;99.90
12893;DHT22;6514;48.606;9.222;2023-03-01T01:38:40;-1.80;99.90
12893;DHT22;6514;48.606;9.222;2023-03-01T01:41:09;-1.80;99.90
12893;DHT22;6514;48.606;9.222;2023-03-01T01:43:39;-1.70;99.90
12893;DHT22;6514;48.606;9.222;2023-03-01T01:46:20;-1.60;99.90
12893;DHT22;6514;48.606;9.222;2023-03-01T01:48:52;-1.50;99.90
12893;DHT22;6514;48.606;9.222;2023-03-01T01:51:24;-1.40;99.90
12893;DHT22;6514;48.606;9.222;2023-03-01T01:53:57;-1.30;99.90
12893;DHT22;6514;48.606;9.222;2023-03-01T01:56:27;-1.20;99.90
12893;DHT22;6514;48.606;9.222;2023-03-01T01:58:55;-1.20;99.90
12893;DHT22;6514;48.606;9.222;2023-03-01T02:01:23;-1.10;99.90
12893;DHT22;6514;48.606;9.222;2023-03-01T02:03:50;-1.10;99.90
12893;DHT22;6514;48.606;9.222;2023-03-01T02:06:24;-1.00;99.90
12893;DHT22;6514;48.606;9.222;2023-03-01T02:08:59;-0.90;99.90
12893;DHT22;6514;48.606;9.222;2023-03-01T02:11:27;-0.90;99.90
12893;DHT22;6514;48.606;9.222;2023-03-01T02:13:55;-0.90;99.90
12893;DHT22;6514;48.606;9.222;2023-03-01T02:16:22;-0.80;99.90
12893;DHT22;6514;48.606;9.222;2023-03-01T02:18:50;-0.80;99.90
12893;DHT22;6514;48.606;9.222;2023-03-01T02:21:30;-0.70;99.90
12893;DHT22;6514;48.606;9.222;2023-03-01T02:24:10;-0.70;99.90
12893;DHT22;6514;48.606;9.222;2023-03-01T02:26:45;-0.70;99.90
12893;DHT22;6514;48.606;9.222;2023-03-01T02:29:15;-0.70;99.90
12893;DHT22;6514;48.606;9.222;2023-03-01T02:31:42;-0.70;99.90
12893;DHT22;6514;48.606;9.222;2023-03-01T02:34:10;-0.70;99.90
12893;DHT22;6514;48.606;9.222;2023-03-01T02:36:39;-0.70;99.90
12893;DHT22;6514;48.606;9.222;2023-03-01T02:39:12;-0.60;99.90
12893;DHT22;6514;48.606;9.222;2023-03-01T02:41:45;-0.60;99.90
12893;DHT22;6514;48.606;9.222;2023-03-01T02:44:15;-0.60;99.90
12893;DHT22;6514;48.606;9.222;2023-03-01T02:46:44;-0.60;99.90
12893;DHT22;6514;48.606;9.222;2023-03-01T02:49:20;-0.50;99.90
12893;DHT22;6514;48.606;9.222;2023-03-01T02:54:40;-0.50;99.90
12893;DHT22;6514;48.606;9.222;2023-03-01T02:57:08;-0.50;99.90
12893;DHT22;6514;48.606;9.222;2023-03-01T02:59:39;-0.50;99.90
12893;DHT22;6514;48.606;9.222;2023-03-01T03:02:07;-0.50;99.90
12893;DHT22;6514;48.606;9.222;2023-03-01T03:04:34;-0.60;99.90
12893;DHT22;6514;48.606;9.222;2023-03-01T03:07:01;-0.50;99.90
12893;DHT22;6514;48.606;9.222;2023-03-01T03:09:28;-0.50;99.90
12893;DHT22;6514;48.606;9.222;2023-03-01T03:11:55;-0.50;99.90
12893;DHT22;6514;48.606;9.222;2023-03-01T03:14:22;-0.50;99.90
12893;DHT22;6514;48.606;9.222;2023-03-01T03:16:50;-0.50;99.90
12893;DHT22;6514;48.606;9.222;2023-03-01T03:19:18;-0.50;99.90
12893;DHT22;6514;48.606;9.222;2023-03-01T03:21:45;-0.50;99.90
12893;DHT22;6514;48.606;9.222;2023-03-01T03:24:12;-0.50;99.90
12893;DHT22;6514;48.606;9.222;2023-03-01T03:26:39;-0.50;99.90
12893;DHT22;6514;48.606;9.222;2023-03-01T03:29:06;-0.50;99.90
12893;DHT22;6514;48.606;9.222;2023-03-01T03:31:33;-0.50;99.90
12893;DHT22;6514;48.606;9.222;2023-03-01T03:34:02;-0.50;99.90
12893;DHT22;6514;48.606;9.222;2023-03-01T03:36:29;-0.50;99.90
12893;DHT22;6514;48.606;9.222;2023-03-01T03:38:56;-0.40;99.90
12893;DHT22;6514;48.606;9.222;2023-03-01T03:41:23;-0.40;99.90
12893;DHT22;6514;48.606;9.222;2023-03-01T03:43:50;-0.40;99.90
12893;DHT22;6514;48.606;9.222;2023-03-01T03:46:17;-0.40;99.90
12893;DHT22;6514;48.606;9.222;2023-03-01T03:48:45;-0.40;99.90
12893;DHT22;6514;48.606;9.222;2023-03-01T03:51:15;-0.40;99.90
12893;DHT22;6514;48.606;9.222;2023-03-01T03:53:43;-0.40;99.90
12893;DHT22;6514;48.606;9.222;2023-03-01T03:56:10;-0.40;99.90
12893;DHT22;6514;48.606;9.222;2023-03-01T03:58:37;-0.40;99.90
12893;DHT22;6514;48.606;9.222;2023-03-01T04:01:04;-0.40;99.90
12893;DHT22;6514;48.606;9.222;2023-03-01T04:03:32;-0.40;99.90
12893;DHT22;6514;48.606;9.222;2023-03-01T04:06:01;-0.40;99.90
12893;DHT22;6514;48.606;9.222;2023-03-01T04:08:31;-0.30;99.90
12893;DHT22;6514;48.606;9.222;2023-03-01T04:11:00;-0.40;99.90
12893;DHT22;6514;48.606;9.222;2023-03-01T04:13:47;-0.40;99.90
12893;DHT22;6514;48.606;9.222;2023-03-01T04:16:14;-0.30;99.90
12893;DHT22;6514;48.606;9.222;2023-03-01T04:18:41;-0.30;99.90
12893;DHT22;6514;48.606;9.222;2023-03-01T04:21:07;-0.30;99.90
12893;DHT22;6514;48.606;9.222;2023-03-01T04:23:36;-0.30;99.90
12893;DHT22;6514;48.606;9.222;2023-03-01T04:26:03;-0.30;99.90
12893;DHT22;6514;48.606;9.222;2023-03-01T04:28:32;-0.30;99.90
12893;DHT22;6514;48.606;9.222;2023-03-01T04:31:03;-0.30;99.90
12893;DHT22;6514;48.606;9.222;2023-03-01T04:33:38;-0.30;99.90
12893;DHT22;6514;48.606;9.222;2023-03-01T04:36:06;-0.30;99.90
12893;DHT22;6514;48.606;9.222;2023-03-01T04:38:35;-0.30;99.90
12893;DHT22;6514;48.606;9.222;2023-03-01T04:41:04;-0.30;99.90
12893;DHT22;6514;48.606;9.222;2023-03-01T04:43:31;-0.20;99.90
12893;DHT22;6514;48.606;9.222;2023-03-01T04:46:03;-0.20;99.90
12893;DHT22;6514;48.606;9.222;2023-03-01T04:48:31;-0.20;99.90
12893;DHT22;6514;48.606;9.222;2023-03-01T04:50:59;-0.20;99.90
12893;DHT22;6514;48.606;9.222;2023-03-01T04:53:26;-0.30;99.90
12893;DHT22;6514;48.606;9.222;2023-03-01T04:55:56;-0.20;99.90
12893;DHT22;6514;48.606;9.222;2023-03-01T04:58:24;-0.20;99.90
12893;DHT22;6514;48.606;9.222;2023-03-01T05:00:51;-0.20;99.90
12893;DHT22;6514;48.606;9.222;2023-03-01T05:03:19;-0.20;99.90
12893;DHT22;6514;48.606;9.222;2023-03-01T05:05:48;-0.20;99.90
12893;DHT22;6514;48.606;9.222;2023-03-01T05:08:15;-0.20;99.90
12893;DHT22;6514;48.606;9.222;2023-03-01T05:10:45;-0.20;99.90
12893;DHT22;6514;48.606;9.222;2023-03-01T05:13:14;-0.30;99.90
12893;DHT22;6514;48.606;9.222;2023-03-01T05:15:46;-0.20;99.90
12893;DHT22;6514;48.606;9.222;2023-03-01T05:18:13;-0.20;99.90
12893;DHT22;6514;48.606;9.222;2023-03-01T05:20:40;-0.10;99.90
12893;DHT22;6514;48.606;9.222;2023-03-01T05:23:07;-0.20;99.90
12893;DHT22;6514;48.606;9.222;2023-03-01T05:25:34;-0.20;99.90
12893;DHT22;6514;48.606;9.222;2023-03-01T05:28:06;-0.20;99.90
12893;DHT22;6514;48.606;9.222;2023-03-01T05:30:34;-0.20;99.90
12893;DHT22;6514;48.606;9.222;2023-03-01T05:33:02;-0.10;99.90
12893;DHT22;6514;48.606;9.222;2023-03-01T05:35:29;-0.20;99.90
12893;DHT22;6514;48.606;9.222;2023-03-01T05:37:58;-0.10;99.90
12893;DHT22;6514;48.606;9.222;2023-03-01T05:40:25;-0.10;99.90
12893;DHT22;6514;48.606;9.222;2023-03-01T05:42:53;-0.10;99.90
12893;DHT22;6514;48.606;9.222;2023-03-01T05:45:21;-0.10;99.90
12893;DHT22;6514;48.606;9.222;2023-03-01T05:47:50;-0.10;99.90
12893;DHT22;6514;48.606;9.222;2023-03-01T05:50:19;-0.10;99.90
12893;DHT22;6514;48.606;9.222;2023-03-01T05:52:47;-0.10;99.90
12893;DHT22;6514;48.606;9.222;2023-03-01T05:55:15;-0.10;99.90
12893;DHT22;6514;48.606;9.222;2023-03-01T05:57:43;-0.10;99.90
12893;DHT22;6514;48.606;9.222;2023-03-01T06:00:14;-0.10;99.90
12893;DHT22;6514;48.606;9.222;2023-03-01T06:02:41;-0.10;99.90
12893;DHT22;6514;48.606;9.222;2023-03-01T06:05:11;-0.10;99.90
12893;DHT22;6514;48.606;9.222;2023-03-01T06:07:38;-0.10;99.90
12893;DHT22;6514;48.606;9.222;2023-03-01T06:10:07;-0.10;99.90
12893;DHT22;6514;48.606;9.222;2023-03-01T06:12:36;0.00;99.90
12893;DHT22;6514;48.606;9.222;2023-03-01T06:15:04;0.00;99.90
12893;DHT22;6514;48.606;9.222;2023-03-01T06:17:33;0.00;99.90
12893;DHT22;6514;48.606;9.222;2023-03-01T06:20:03;0.00;99.90
12893;DHT22;6514;48.606;9.222;2023-03-01T06:22:31;0.00;99.90
12893;DHT22;6514;48.606;9.222;2023-03-01T06:24:58;0.10;99.90
12893;DHT22;6514;48.606;9.222;2023-03-01T06:27:25;0.10;99.90
12893;DHT22;6514;48.606;9.222;2023-03-01T06:29:52;0.00;99.90
12893;DHT22;6514;48.606;9.222;2023-03-01T06:32:19;0.00;99.90
12893;DHT22;6514;48.606;9.222;2023-03-01T06:34:46;-0.10;99.90
12893;DHT22;6514;48.606;9.222;2023-03-01T06:37:13;-0.10;99.90
12893;DHT22;6514;48.606;9.222;2023-03-01T06:39:41;-0.20;99.90
12893;DHT22;6514;48.606;9.222;2023-03-01T06:42:08;-0.20;99.90
12893;DHT22;6514;48.606;9.222;2023-03-01T06:44:35;-0.30;99.90
12893;DHT22;6514;48.606;9.222;2023-03-01T06:47:03;-0.30;99.90
12893;DHT22;6514;48.606;9.222;2023-03-01T06:49:30;-0.30;99.90
12893;DHT22;6514;48.606;9.222;2023-03-01T06:51:57;-0.30;99.90
12893;DHT22;6514;48.606;9.222;2023-03-01T06:54:24;-0.30;99.90
12893;DHT22;6514;48.606;9.222;2023-03-01T06:56:52;-0.20;99.90
12893;DHT22;6514;48.606;9.222;2023-03-01T06:59:19;-0.10;99.90
12893;DHT22;6514;48.606;9.222;2023-03-01T07:01:46;0.00;99.90
12893;DHT22;6514;48.606;9.222;2023-03-01T07:04:13;0.10;99.90
12893;DHT22;6514;48.606;9.222;2023-03-01T07:06:40;0.20;99.90
12893;DHT22;6514;48.606;9.222;2023-03-01T07:09:07;0.30;99.90
12893;DHT22;6514;48.606;9.222;2023-03-01T07:11:34;0.60;99.90
12893;DHT22;6514;48.606;9.222;2023-03-01T07:14:02;0.50;99.90
12893;DHT22;6514;48.606;9.222;2023-03-01T07:16:29;0.70;99.90
12893;DHT22;6514;48.606;9.222;2023-03-01T07:18:56;0.80;99.90
12893;DHT22;6514;48.606;9.222;2023-03-01T07:21:23;1.00;99.90
12893;DHT22;6514;48.606;9.222;2023-03-01T07:23:49;1.10;99.90
12893;DHT22;6514;48.606;9.222;2023-03-01T07:26:16;1.30;99.90
12893;DHT22;6514;48.606;9.222;2023-03-01T07:28:43;1.50;99.90
12893;DHT22;6514;48.606;9.222;2023-03-01T07:31:11;1.70;99.90
12893;DHT22;6514;48.606;9.222;2023-03-01T07:33:38;1.80;99.90
12893;DHT22;6514;48.606;9.222;2023-03-01T07:36:06;1.90;99.90
12893;DHT22;6514;48.606;9.222;2023-03-01T07:38:33;2.10;99.90
12893;DHT22;6514;48.606;9.222;2023-03-01T07:41:01;2.20;99.90
12893;DHT22;6514;48.606;9.222;2023-03-01T07:43:30;2.40;99.90
12893;DHT22;6514;48.606;9.222;2023-03-01T07:45:58;2.60;99.90
12893;DHT22;6514;48.606;9.222;2023-03-01T07:48:28;2.70;99.90
12893;DHT22;6514;48.606;9.222;2023-03-01T07:50:58;3.00;99.90
12893;DHT22;6514;48.606;9.222;2023-03-01T07:53:25;3.20;99.90
12893;DHT22;6514;48.606;9.222;2023-03-01T07:56:00;3.30;99.90
12893;DHT22;6514;48.606;9.222;2023-03-01T07:58:27;3.40;99.90
12893;DHT22;6514;48.606;9.222;2023-03-01T08:00:54;3.40;99.90
12893;DHT22;6514;48.606;9.222;2023-03-01T08:03:21;3.50;99.90
12893;DHT22;6514;48.606;9.222;2023-03-01T08:05:49;3.50;99.90
12893;DHT22;6514;48.606;9.222;2023-03-01T08:08:16;3.70;99.90
12893;DHT22;6514;48.606;9.222;2023-03-01T08:10:43;3.90;99.90
12893;DHT22;6514;48.606;9.222;2023-03-01T08:13:10;4.00;99.90
12893;DHT22;6514;48.606;9.222;2023-03-01T08:15:36;4.00;99.90
12893;DHT22;6514;48.606;9.222;2023-03-01T08:18:03;4.20;99.90
12893;DHT22;6514;48.606;9.222;2023-03-01T08:20:32;4.30;99.90
12893;DHT22;6514;48.606;9.222;2023-03-01T08:23:00;4.50;99.90
12893;DHT22;6514;48.606;9.222;2023-03-01T08:25:27;4.60;99.90
12893;DHT22;6514;48.606;9.222;2023-03-01T08:27:54;4.70;99.90
12893;DHT22;6514;48.606;9.222;2023-03-01T08:30:20;4.70;99.90
12893;DHT22;6514;48.606;9.222;2023-03-01T08:32:49;4.80;99.90
12893;DHT22;6514;48.606;9.222;2023-03-01T08:35:16;4.90;99.90
12893;DHT22;6514;48.606;9.222;2023-03-01T08:37:43;5.10;99.90
12893;DHT22;6514;48.606;9.222;2023-03-01T08:40:12;5.20;99.90
12893;DHT22;6514;48.606;9.222;2023-03-01T08:42:40;5.40;99.90
12893;DHT22;6514;48.606;9.222;2023-03-01T08:45:09;5.50;99.90
12893;DHT22;6514;48.606;9.222;2023-03-01T08:47:37;5.60;99.90
12893;DHT22;6514;48.606;9.222;2023-03-01T08:50:04;5.70;99.90
12893;DHT22;6514;48.606;9.222;2023-03-01T08:52:32;5.70;99.90
12893;DHT22;6514;48.606;9.222;2023-03-01T08:54:59;5.70;99.90
12893;DHT22;6514;48.606;9.222;2023-03-01T08:57:28;5.80;99.90
12893;DHT22;6514;48.606;9.222;2023-03-01T08:59:56;6.00;99.90
12893;DHT22;6514;48.606;9.222;2023-03-01T09:02:22;6.20;99.90
12893;DHT22;6514;48.606;9.222;2023-03-01T09:04:49;6.30;99.90
12893;DHT22;6514;48.606;9.222;2023-03-01T09:07:16;6.30;99.90
12893;DHT22;6514;48.606;9.222;2023-03-01T09:09:43;6.40;99.90
12893;DHT22;6514;48.606;9.222;2023-03-01T09:12:10;6.60;99.90
12893;DHT22;6514;48.606;9.222;2023-03-01T09:14:38;6.70;99.90
12893;DHT22;6514;48.606;9.222;2023-03-01T09:17:06;6.60;99.90
12893;DHT22;6514;48.606;9.222;2023-03-01T09:19:33;6.50;99.90
12893;DHT22;6514;48.606;9.222;2023-03-01T09:22:00;6.50;99.90
12893;DHT22;6514;48.606;9.222;2023-03-01T09:24:27;6.50;99.90
12893;DHT22;6514;48.606;9.222;2023-03-01T09:26:54;6.50;99.90
12893;DHT22;6514;48.606;9.222;2023-03-01T09:29:21;6.50;99.90
12893;DHT22;6514;48.606;9.222;2023-03-01T09:31:50;6.50;99.90
12893;DHT22;6514;48.606;9.222;2023-03-01T09:34:17;6.70;99.90
12893;DHT22;6514;48.606;9.222;2023-03-01T09:36:48;6.90;99.90
12893;DHT22;6514;48.606;9.222;2023-03-01T09:39:15;6.90;99.90
12893;DHT22;6514;48.606;9.222;2023-03-01T09:41:46;7.10;99.90
12893;DHT22;6514;48.606;9.222;2023-03-01T09:44:25;7.40;99.90
12893;DHT22;6514;48.606;9.222;2023-03-01T09:46:54;7.50;99.90
12893;DHT22;6514;48.606;9.222;2023-03-01T09:49:25;7.70;99.90
12893;DHT22;6514;48.606;9.222;2023-03-01T09:51:59;7.90;99.90
12893;DHT22;6514;48.606;9.222;2023-03-01T09:54:27;7.80;99.90
12893;DHT22;6514;48.606;9.222;2023-03-01T09:57:04;8.00;99.90
12893;DHT22;6514;48.606;9.222;2023-03-01T09:59:41;8.20;99.90
12893;DHT22;6514;48.606;9.222;2023-03-01T10:02:23;8.50;99.90
12893;DHT22;6514;48.606;9.222;2023-03-01T10:04:54;8.20;99.90
12893;DHT22;6514;48.606;9.222;2023-03-01T10:07:28;8.00;99.90
12893;DHT22;6514;48.606;9.222;2023-03-01T10:09:58;8.10;99.90
12893;DHT22;6514;48.606;9.222;2023-03-01T10:12:30;8.10;99.90
12893;DHT22;6514;48.606;9.222;2023-03-01T10:15:04;8.30;99.90
12893;DHT22;6514;48.606;9.222;2023-03-01T10:17:36;8.70;99.90
12893;DHT22;6514;48.606;9.222;2023-03-01T10:20:16;9.00;99.90
12893;DHT22;6514;48.606;9.222;2023-03-01T10:22:43;9.00;99.90
12893;DHT22;6514;48.606;9.222;2023-03-01T10:25:15;8.90;99.90
12893;DHT22;6514;48.606;9.222;2023-03-01T10:27:51;8.80;99.90
12893;DHT22;6514;48.606;9.222;2023-03-01T10:30:21;8.90;99.90
12893;DHT22;6514;48.606;9.222;2023-03-01T10:32:52;9.20;99.90
12893;DHT22;6514;48.606;9.222;2023-03-01T10:35:23;9.60;99.90
12893;DHT22;6514;48.606;9.222;2023-03-01T10:38:03;9.70;99.90
12893;DHT22;6514;48.606;9.222;2023-03-01T10:40:31;9.70;99.90
12893;DHT22;6514;48.606;9.222;2023-03-01T10:43:00;9.70;99.90
12893;DHT22;6514;48.606;9.222;2023-03-01T10:45:32;10.20;99.90
12893;DHT22;6514;48.606;9.222;2023-03-01T10:48:08;10.70;99.90
12893;DHT22;6514;48.606;9.222;2023-03-01T10:50:38;11.00;99.90
12893;DHT22;6514;48.606;9.222;2023-03-01T10:53:20;11.20;99.90
12893;DHT22;6514;48.606;9.222;2023-03-01T10:56:00;11.40;99.90
12893;DHT22;6514;48.606;9.222;2023-03-01T10:58:28;11.10;99.90
12893;DHT22;6514;48.606;9.222;2023-03-01T11:00:56;11.30;99.90
12893;DHT22;6514;48.606;9.222;2023-03-01T11:03:27;11.40;99.90
12893;DHT22;6514;48.606;9.222;2023-03-01T11:06:05;11.60;99.90
12893;DHT22;6514;48.606;9.222;2023-03-01T11:08:46;11.80;99.90
12893;DHT22;6514;48.606;9.222;2023-03-01T11:11:19;11.80;99.90
12893;DHT22;6514;48.606;9.222;2023-03-01T11:13:58;11.50;99.90
12893;DHT22;6514;48.606;9.222;2023-03-01T11:16:32;11.50;99.90
12893;DHT22;6514;48.606;9.222;2023-03-01T11:22:02;11.00;99.90
12893;DHT22;6514;48.606;9.222;2023-03-01T11:24:34;10.80;99.90
12893;DHT22;6514;48.606;9.222;2023-03-01T11:27:06;10.60;99.90
12893;DHT22;6514;48.606;9.222;2023-03-01T11:29:40;10.40;99.90
12893;DHT22;6514;48.606;9.222;2023-03-01T11:32:09;10.10;99.90
12893;DHT22;6514;48.606;9.222;2023-03-01T11:34:43;9.80;99.90
12893;DHT22;6514;48.606;9.222;2023-03-01T11:37:21;9.90;99.90
12893;DHT22;6514;48.606;9.222;2023-03-01T11:39:55;10.10;99.90
12893;DHT22;6514;48.606;9.222;2023-03-01T11:42:30;10.40;99.90
12893;DHT22;6514;48.606;9.222;2023-03-01T11:45:08;10.70;99.90
12893;DHT22;6514;48.606;9.222;2023-03-01T11:48:06;11.00;99.90
12893;DHT22;6514;48.606;9.222;2023-03-01T11:50:41;11.30;99.90
12893;DHT22;6514;48.606;9.222;2023-03-01T11:53:29;11.30;99.90
12893;DHT22;6514;48.606;9.222;2023-03-01T11:56:09;11.30;99.90
12893;DHT22;6514;48.606;9.222;2023-03-01T11:58:59;11.00;99.90
12893;DHT22;6514;48.606;9.222;2023-03-01T12:01:39;10.60;99.90
12893;DHT22;6514;48.606;9.222;2023-03-01T12:10:59;10.70;99.90
12893;DHT22;6514;48.606;9.222;2023-03-01T12:13:49;10.80;99.90
12893;DHT22;6514;48.606;9.222;2023-03-01T12:16:27;11.00;99.90
12893;DHT22;6514;48.606;9.222;2023-03-01T12:22:02;10.60;99.90
12893;DHT22;6514;48.606;9.222;2023-03-01T12:24:56;10.20;99.90
12893;DHT22;6514;48.606;9.222;2023-03-01T12:27:54;10.50;99.90
12893;DHT22;6514;48.606;9.222;2023-03-01T12:30:30;10.70;99.90
12893;DHT22;6514;48.606;9.222;2023-03-01T12:33:08;10.80;99.90
12893;DHT22;6514;48.606;9.222;2023-03-01T12:38:41;10.80;99.90
12893;DHT22;6514;48.606;9.222;2023-03-01T12:41:31;10.90;99.90
12893;DHT22;6514;48.606;9.222;2023-03-01T12:44:15;10.90;99.90
12893;DHT22;6514;48.606;9.222;2023-03-01T12:47:04;10.70;99.90
12893;DHT22;6514;48.606;9.222;2023-03-01T12:49:36;10.60;99.90
12893;DHT22;6514;48.606;9.222;2023-03-01T12:52:11;10.60;99.90
12893;DHT22;6514;48.606;9.222;2023-03-01T12:54:41;10.60;99.90
12893;DHT22;6514;48.606;9.222;2023-03-01T12:57:14;10.80;99.90
12893;DHT22;6514;48.606;9.222;2023-03-01T12:59:51;10.60;99.90
12893;DHT22;6514;48.606;9.222;2023-03-01T13:02:31;10.50;99.90
12893;DHT22;6514;48.606;9.222;2023-03-01T13:05:24;10.40;99.90
12893;DHT22;6514;48.606;9.222;2023-03-01T13:07:57;10.50;99.90
12893;DHT22;6514;48.606;9.222;2023-03-01T13:10:31;10.50;99.90
12893;DHT22;6514;48.606;9.222;2023-03-01T13:13:13;10.60;99.90
12893;DHT22;6514;48.606;9.222;2023-03-01T13:15:42;10.50;99.90
12893;DHT22;6514;48.606;9.222;2023-03-01T13:18:29;10.40;99.90
12893;DHT22;6514;48.606;9.222;2023-03-01T13:20:58;10.40;99.90
12893;DHT22;6514;48.606;9.222;2023-03-01T13:23:28;10.40;99.90
12893;DHT22;6514;48.606;9.222;2023-03-01T13:26:17;10.40;99.90
12893;DHT22;6514;48.606;9.222;2023-03-01T13:28:52;10.20;99.90
12893;DHT22;6514;48.606;9.222;2023-03-01T13:34:50;10.20;99.90
12893;DHT22;6514;48.606;9.222;2023-03-01T13:37:25;10.20;99.90
12893;DHT22;6514;48.606;9.222;2023-03-01T13:39:55;10.10;99.90
12893;DHT22;6514;48.606;9.222;2023-03-01T13:42:43;10.20;99.90
12893;DHT22;6514;48.606;9.222;2023-03-01T13:45:33;10.40;99.90
12893;DHT22;6514;48.606;9.222;2023-03-01T13:48:03;10.50;99.90
12893;DHT22;6514;48.606;9.222;2023-03-01T13:50:38;10.60;99.90
12893;DHT22;6514;48.606;9.222;2023-03-01T13:53:13;10.70;99.90
12893;DHT22;6514;48.606;9.222;2023-03-01T13:55:43;10.70;99.90
12893;DHT22;6514;48.606;9.222;2023-03-01T13:58:18;10.80;99.90
12893;DHT22;6514;48.606;9.222;2023-03-01T14:00:46;10.70;99.90
12893;DHT22;6514;48.606;9.222;2023-03-01T14:03:15;10.60;99.90
12893;DHT22;6514;48.606;9.222;2023-03-01T14:05:58;10.70;99.90
12893;DHT22;6514;48.606;9.222;2023-03-01T14:08:27;10.70;99.90
12893;DHT22;6514;48.606;9.222;2023-03-01T14:11:21;10.80;99.90
12893;DHT22;6514;48.606;9.222;2023-03-01T14:16:52;11.00;99.90
12893;DHT22;6514;48.606;9.222;2023-03-01T14:19:24;10.90;99.90
12893;DHT22;6514;48.606;9.222;2023-03-01T14:22:02;10.90;99.90
12893;DHT22;6514;48.606;9.222;2023-03-01T14:24:31;10.90;99.90
12893;DHT22;6514;48.606;9.222;2023-03-01T14:27:01;10.80;99.90
12893;DHT22;6514;48.606;9.222;2023-03-01T14:29:34;10.80;99.90
12893;DHT22;6514;48.606;9.222;2023-03-01T14:32:10;10.50;99.90
12893;DHT22;6514;48.606;9.222;2023-03-01T14:34:42;10.20;99.90
12893;DHT22;6514;48.606;9.222;2023-03-01T14:37:17;10.20;99.90
12893;DHT22;6514;48.606;9.222;2023-03-01T14:39:45;10.20;99.90
12893;DHT22;6514;48.606;9.222;2023-03-01T14:42:12;10.40;99.90
12893;DHT22;6514;48.606;9.222;2023-03-01T14:44:41;10.50;99.90
12893;DHT22;6514;48.606;9.222;2023-03-01T14:47:12;10.60;99.90
12893;DHT22;6514;48.606;9.222;2023-03-01T14:49:41;10.50;99.90
12893;DHT22;6514;48.606;9.222;2023-03-01T14:52:20;10.40;99.90
12893;DHT22;6514;48.606;9.222;2023-03-01T14:54:48;10.30;99.90
12893;DHT22;6514;48.606;9.222;2023-03-01T14:57:18;10.10;99.90
12893;DHT22;6514;48.606;9.222;2023-03-01T14:59:47;10.10;99.90
12893;DHT22;6514;48.606;9.222;2023-03-01T15:02:18;10.00;99.90
12893;DHT22;6514;48.606;9.222;2023-03-01T15:04:48;9.90;99.90
12893;DHT22;6514;48.606;9.222;2023-03-01T15:07:16;9.80;99.90
12893;DHT22;6514;48.606;9.222;2023-03-01T15:09:46;9.60;99.90
12893;DHT22;6514;48.606;9.222;2023-03-01T15:12:38;9.50;99.90
12893;DHT22;6514;48.606;9.222;2023-03-01T15:15:33;9.30;99.90
12893;DHT22;6514;48.606;9.222;2023-03-01T15:18:03;9.20;99.90
12893;DHT22;6514;48.606;9.222;2023-03-01T15:20:31;9.10;99.90
12893;DHT22;6514;48.606;9.222;2023-03-01T15:23:01;9.10;99.90
12893;DHT22;6514;48.606;9.222;2023-03-01T15:25:31;9.00;99.90
12893;DHT22;6514;48.606;9.222;2023-03-01T15:28:00;8.90;99.90
12893;DHT22;6514;48.606;9.222;2023-03-01T15:30:31;8.80;99.90
12893;DHT22;6514;48.606;9.222;2023-03-01T15:33:18;8.80;99.90
12893;DHT22;6514;48.606;9.222;2023-03-01T15:35:47;8.70;99.90
12893;DHT22;6514;48.606;9.222;2023-03-01T15:38:27;8.60;99.90
12893;DHT22;6514;48.606;9.222;2023-03-01T15:40:56;8.40;99.90
12893;DHT22;6514;48.606;9.222;2023-03-01T15:43:44;8.30;99.90
12893;DHT22;6514;48.606;9.222;2023-03-01T15:46:24;8.20;99.90
12893;DHT22;6514;48.606;9.222;2023-03-01T15:48:54;8.10;99.90
12893;DHT22;6514;48.606;9.222;2023-03-01T15:51:33;8.00;99.90
12893;DHT22;6514;48.606;9.222;2023-03-01T15:54:04;8.00;99.90
12893;DHT22;6514;48.606;9.222;2023-03-01T15:56:33;7.80;99.90
12893;DHT22;6514;48.606;9.222;2023-03-01T15:59:01;7.70;99.90
12893;DHT22;6514;48.606;9.222;2023-03-01T16:01:29;7.60;99.90
12893;DHT22;6514;48.606;9.222;2023-03-01T16:03:56;7.50;99.90
12893;DHT22;6514;48.606;9.222;2023-03-01T16:06:24;7.50;99.90
12893;DHT22;6514;48.606;9.222;2023-03-01T16:08:51;7.40;99.90
12893;DHT22;6514;48.606;9.222;2023-03-01T16:11:20;7.40;99.90
12893;DHT22;6514;48.606;9.222;2023-03-01T16:13:49;7.30;99.90
12893;DHT22;6514;48.606;9.222;2023-03-01T16:16:17;7.20;99.90
12893;DHT22;6514;48.606;9.222;2023-03-01T16:18:45;7.10;99.90
12893;DHT22;6514;48.606;9.222;2023-03-01T16:21:20;7.00;99.90
12893;DHT22;6514;48.606;9.222;2023-03-01T16:23:47;6.90;99.90
12893;DHT22;6514;48.606;9.222;2023-03-01T16:26:15;6.80;99.90
12893;DHT22;6514;48.606;9.222;2023-03-01T16:28:42;6.70;99.90
12893;DHT22;6514;48.606;9.222;2023-03-01T16:31:11;6.60;99.90
12893;DHT22;6514;48.606;9.222;2023-03-01T16:33:43;6.60;99.90
12893;DHT22;6514;48.606;9.222;2023-03-01T16:36:16;6.50;99.90
12893;DHT22;6514;48.606;9.222;2023-03-01T16:38:44;6.40;99.90